sensor_id;sensor_type;location;lat;lon;timestamp;P1;durP1;ratioP1;P2;durP2;ratioP2
25984;SDS011;66753;53.848;10.658;2023-07-30T00:12:46;13.67;;;6.37;;
25984;SDS011;66753;53.848;10.658;2023-07-30T00:27:47;14.90;;;7.73;;
25984;SDS011;66753;53.848;10.658;2023-07-30T00:42:49;17.80;;;8.23;;
25984;SDS011;66753;53.848;10.658;2023-07-30T00:57:50;19.57;;;8.67;;
25984;SDS011;66753;53.848;10.658;2023-07-30T01:12:52;18.53;;;8.47;;
25984;SDS011;66753;53.848;10.658;2023-07-30T01:27:54;16.83;;;7.43;;
25984;SDS011;66753;53.848;10.658;2023-07-30T01:42:59;11.30;;;5.20;;
25984;SDS011;66753;53.848;10.658;2023-07-30T01:58:01;7.67;;;3.80;;
25984;SDS011;66753;53.848;10.658;2023-07-30T02:13:03;6.10;;;3.40;;
25984;SDS011;66753;53.848;10.658;2023-07-30T02:28:05;7.03;;;3.37;;
25984;SDS011;66753;53.848;10.658;2023-07-30T02:43:07;9.00;;;3.83;;
25984;SDS011;66753;53.848;10.658;2023-07-30T02:58:08;5.87;;;2.90;;
25984;SDS011;66753;53.848;10.658;2023-07-30T03:13:09;5.83;;;3.20;;
25984;SDS011;66753;53.848;10.658;2023-07-30T03:28:10;5.57;;;2.90;;
25984;SDS011;66753;53.848;10.658;2023-07-30T03:43:12;5.77;;;2.80;;
25984;SDS011;66753;53.848;10.658;2023-07-30T03:58:13;4.40;;;2.30;;
25984;SDS011;66753;53.848;10.658;2023-07-30T04:13:15;5.00;;;2.77;;
25984;SDS011;66753;53.848;10.658;2023-07-30T04:28:17;7.63;;;3.43;;
25984;SDS011;66753;53.848;10.658;2023-07-30T04:43:18;8.70;;;4.97;;
25984;SDS011;66753;53.848;10.658;2023-07-30T04:58:20;8.47;;;5.57;;
25984;SDS011;66753;53.848;10.658;2023-07-30T05:13:22;9.90;;;5.90;;
25984;SDS011;66753;53.848;10.658;2023-07-30T05:28:25;9.93;;;6.20;;
25984;SDS011;66753;53.848;10.658;2023-07-30T05:43:27;12.97;;;6.23;;
25984;SDS011;66753;53.848;10.658;2023-07-30T05:58:30;10.70;;;5.53;;
25984;SDS011;66753;53.848;10.658;2023-07-30T06:13:32;10.27;;;4.73;;
25984;SDS011;66753;53.848;10.658;2023-07-30T06:28:34;11.40;;;5.00;;
25984;SDS011;66753;53.848;10.658;2023-07-30T06:43:35;9.40;;;4.50;;
25984;SDS011;66753;53.848;10.658;2023-07-30T06:58:37;7.87;;;3.50;;
25984;SDS011;66753;53.848;10.658;2023-07-30T07:13:38;12.27;;;3.70;;
25984;SDS011;66753;53.848;10.658;2023-07-30T07:28:40;8.27;;;3.23;;
25984;SDS011;66753;53.848;10.658;2023-07-30T07:58:46;5.30;;;2.13;;
25984;SDS011;66753;53.848;10.658;2023-07-30T08:13:48;8.60;;;2.53;;
25984;SDS011;66753;53.848;10.658;2023-07-30T08:28:49;6.87;;;2.10;;
25984;SDS011;66753;53.848;10.658;2023-07-30T08:43:51;5.70;;;2.30;;
25984;SDS011;66753;53.848;10.658;2023-07-30T08:58:53;8.43;;;3.70;;
25984;SDS011;66753;53.848;10.658;2023-07-30T09:14:00;8.13;;;3.50;;
25984;SDS011;66753;53.848;10.658;2023-07-30T09:29:07;10.17;;;3.93;;
25984;SDS011;66753;53.848;10.658;2023-07-30T09:44:09;8.37;;;3.50;;
25984;SDS011;66753;53.848;10.658;2023-07-30T09:59:11;5.80;;;2.60;;
25984;SDS011;66753;53.848;10.658;2023-07-30T10:14:13;6.87;;;2.90;;
25984;SDS011;66753;53.848;10.658;2023-07-30T10:29:17;7.70;;;2.90;;
25984;SDS011;66753;53.848;10.658;2023-07-30T10:44:24;6.83;;;2.07;;
25984;SDS011;66753;53.848;10.658;2023-07-30T10:59:34;4.93;;;2.10;;
25984;SDS011;66753;53.848;10.658;2023-07-30T11:14:37;5.23;;;1.87;;
25984;SDS011;66753;53.848;10.658;2023-07-30T11:29:38;5.10;;;1.90;;
25984;SDS011;66753;53.848;10.658;2023-07-30T11:44:41;6.57;;;2.43;;
25984;SDS011;66753;53.848;10.658;2023-07-30T11:59:42;4.63;;;2.53;;
25984;SDS011;66753;53.848;10.658;2023-07-30T12:14:44;8.17;;;3.50;;
25984;SDS011;66753;53.848;10.658;2023-07-30T12:29:55;5.90;;;2.40;;
25984;SDS011;66753;53.848;10.658;2023-07-30T12:44:57;4.40;;;1.20;;
25984;SDS011;66753;53.848;10.658;2023-07-30T12:59:58;4.33;;;1.70;;
25984;SDS011;66753;53.848;10.658;2023-07-30T13:15:00;5.13;;;1.50;;
25984;SDS011;66753;53.848;10.658;2023-07-30T13:30:01;4.10;;;1.37;;
25984;SDS011;66753;53.848;10.658;2023-07-30T13:45:04;3.83;;;1.07;;
25984;SDS011;66753;53.848;10.658;2023-07-30T14:00:06;6.17;;;1.30;;
25984;SDS011;66753;53.848;10.658;2023-07-30T14:15:08;3.43;;;1.90;;
25984;SDS011;66753;53.848;10.658;2023-07-30T14:45:12;2.93;;;0.90;;
25984;SDS011;66753;53.848;10.658;2023-07-30T15:00:13;2.53;;;0.90;;
25984;SDS011;66753;53.848;10.658;2023-07-30T15:15:16;3.17;;;0.80;;
25984;SDS011;66753;53.848;10.658;2023-07-30T15:30:18;3.50;;;0.80;;
25984;SDS011;66753;53.848;10.658;2023-07-30T15:45:19;2.70;;;0.90;;
25984;SDS011;66753;53.848;10.658;2023-07-30T16:15:25;3.50;;;0.77;;
25984;SDS011;66753;53.848;10.658;2023-07-30T16:30:29;3.00;;;1.00;;
25984;SDS011;66753;53.848;10.658;2023-07-30T16:45:30;3.53;;;0.80;;
25984;SDS011;66753;53.848;10.658;2023-07-30T17:00:31;3.13;;;0.87;;
25984;SDS011;66753;53.848;10.658;2023-07-30T17:15:34;3.73;;;1.00;;
25984;SDS011;66753;53.848;10.658;2023-07-30T17:30:36;2.07;;;0.50;;
25984;SDS011;66753;53.848;10.658;2023-07-30T17:45:38;2.17;;;0.60;;
25984;SDS011;66753;53.848;10.658;2023-07-30T18:00:43;2.00;;;0.40;;
25984;SDS011;66753;53.848;10.658;2023-07-30T18:15:47;2.83;;;0.43;;
25984;SDS011;66753;53.848;10.658;2023-07-30T18:30:48;1.70;;;0.30;;
25984;SDS011;66753;53.848;10.658;2023-07-30T18:45:50;1.57;;;0.40;;
25984;SDS011;66753;53.848;10.658;2023-07-30T19:00:53;1.93;;;0.47;;
25984;SDS011;66753;53.848;10.658;2023-07-30T19:15:55;1.80;;;0.53;;
25984;SDS011;66753;53.848;10.658;2023-07-30T19:46:04;3.03;;;0.70;;
25984;SDS011;66753;53.848;10.658;2023-07-30T20:01:09;2.37;;;0.53;;
25984;SDS011;66753;53.848;10.658;2023-07-30T20:16:11;1.83;;;0.50;;
25984;SDS011;66753;53.848;10.658;2023-07-30T20:31:13;2.80;;;0.70;;
25984;SDS011;66753;53.848;10.658;2023-07-30T20:46:15;4.17;;;0.80;;
25984;SDS011;66753;53.848;10.658;2023-07-30T21:01:17;3.00;;;0.90;;
25984;SDS011;66753;53.848;10.658;2023-07-30T21:16:18;2.83;;;1.40;;
25984;SDS011;66753;53.848;10.658;2023-07-30T21:31:20;3.30;;;0.80;;
25984;SDS011;66753;53.848;10.658;2023-07-30T21:46:21;2.53;;;0.80;;
25984;SDS011;66753;53.848;10.658;2023-07-30T22:01:23;1.70;;;0.63;;
25984;SDS011;66753;53.848;10.658;2023-07-30T22:16:24;5.10;;;1.20;;
25984;SDS011;66753;53.848;10.658;2023-07-30T22:31:26;4.70;;;0.90;;
25984;SDS011;66753;53.848;10.658;2023-07-30T22:46:28;3.97;;;0.80;;
25984;SDS011;66753;53.848;10.658;2023-07-30T23:01:29;3.83;;;0.90;;
25984;SDS011;66753;53.848;10.658;2023-07-30T23:16:32;4.33;;;0.90;;
25984;SDS011;66753;53.848;10.658;2023-07-30T23:31:34;3.03;;;1.00;;
25984;SDS011;66753;53.848;10.658;2023-07-30T23:46:36;2.57;;;0.80;;
